createdAt,value
2022-09-07T00:02:50.588Z,4.37
2022-09-07T00:05:59.772Z,4.32
2022-09-07T00:09:07.591Z,4.06
2022-09-07T00:12:13.912Z,4.20
2022-09-07T00:15:21.277Z,4.44
2022-09-07T00:18:29.508Z,4.30
2022-09-07T00:21:38.424Z,4.05
2022-09-07T00:24:44.700Z,3.79
2022-09-07T00:27:51.107Z,4.03
2022-09-07T00:30:58.073Z,3.76
2022-09-07T00:34:09.549Z,3.82
2022-09-07T00:37:18.358Z,3.99
2022-09-07T00:40:24.586Z,4.00
2022-09-07T00:43:37.135Z,4.09
2022-09-07T00:46:43.697Z,4.00
2022-09-07T00:50:00.767Z,4.11
2022-09-07T00:53:25.333Z,3.78
2022-09-07T00:56:44.327Z,4.00
2022-09-07T00:59:56.105Z,3.86
2022-09-07T01:03:05.210Z,4.10
2022-09-07T01:06:20.983Z,4.03
2022-09-07T01:09:32.658Z,4.05
2022-09-07T01:12:38.956Z,4.14
2022-09-07T01:16:02.302Z,3.94
2022-09-07T01:20:08.689Z,4.21
2022-09-07T01:24:33.146Z,4.20
2022-09-07T01:28:12.646Z,4.16
2022-09-07T01:31:37.069Z,4.08
2022-09-07T01:34:55.338Z,4.33
2022-09-07T01:38:17.932Z,5.42
2022-09-07T01:41:36.210Z,4.69
2022-09-07T01:44:56.852Z,4.82
2022-09-07T01:48:10.512Z,4.94
2022-09-07T01:51:20.475Z,4.53
2022-09-07T01:54:36.110Z,4.67
2022-09-07T01:57:51.415Z,5.13
2022-09-07T02:01:11.003Z,5.12
2022-09-07T02:04:34.173Z,5.58
2022-09-07T02:07:51.597Z,5.47
2022-09-07T02:11:20.723Z,6.31
2022-09-07T02:14:34.286Z,6.70
2022-09-07T02:17:51.561Z,6.19
2022-09-07T02:21:04.873Z,5.36
2022-09-07T02:24:21.349Z,5.41
2022-09-07T02:27:38.837Z,5.17
2022-09-07T02:30:46.309Z,5.04
2022-09-07T02:33:55.745Z,5.60
2022-09-07T02:37:08.982Z,5.26
2022-09-07T02:40:16.004Z,5.54
2022-09-07T02:43:26.646Z,5.41
2022-09-07T02:47:03.756Z,5.60
2022-09-07T02:50:55.665Z,5.41
2022-09-07T02:54:49.432Z,5.63
2022-09-07T02:58:17.807Z,5.53
2022-09-07T03:01:43.460Z,5.47
2022-09-07T03:05:04.091Z,5.44
2022-09-07T03:08:21.627Z,5.20
2022-09-07T03:11:28.906Z,5.42
2022-09-07T03:14:36.439Z,5.18
2022-09-07T03:17:44.310Z,5.10
2022-09-07T03:20:50.898Z,5.13
2022-09-07T03:23:59.052Z,5.05
2022-09-07T03:27:04.832Z,4.96
2022-09-07T03:30:14.784Z,5.16
2022-09-07T03:33:20.998Z,6.15
2022-09-07T03:36:26.653Z,7.33
2022-09-07T03:39:42.185Z,7.92
2022-09-07T03:42:52.786Z,7.99
2022-09-07T03:46:01.884Z,8.06
2022-09-07T03:49:07.494Z,7.03
2022-09-07T03:52:13.701Z,6.79
2022-09-07T03:55:23.729Z,7.03
2022-09-07T03:58:29.409Z,6.69
2022-09-07T04:01:35.223Z,6.73
2022-09-07T04:04:40.902Z,6.38
2022-09-07T04:07:46.443Z,6.04
2022-09-07T04:10:54.674Z,6.17
2022-09-07T04:14:00.693Z,6.22
2022-09-07T04:17:08.876Z,6.75
2022-09-07T04:20:14.573Z,6.43
2022-09-07T04:23:22.028Z,6.10
2022-09-07T04:26:39.517Z,5.94
2022-09-07T04:29:45.122Z,6.34
2022-09-07T04:32:54.376Z,6.30
2022-09-07T04:36:02.017Z,6.08
2022-09-07T04:39:08.916Z,6.08
2022-09-07T04:42:17.245Z,6.07
2022-09-07T04:45:22.946Z,6.17
2022-09-07T04:48:28.579Z,6.67
2022-09-07T04:51:38.718Z,7.28
2022-09-07T04:54:46.661Z,7.75
2022-09-07T04:57:54.940Z,8.36
2022-09-07T05:01:04.854Z,8.47
2022-09-07T05:04:10.442Z,8.16
2022-09-07T05:07:16.077Z,8.28
2022-09-07T05:10:21.703Z,8.13
2022-09-07T05:13:33.260Z,7.65
2022-09-07T05:16:38.920Z,8.23
2022-09-07T05:19:44.483Z,7.88
2022-09-07T05:22:50.503Z,7.98
2022-09-07T05:25:56.130Z,7.60
2022-09-07T05:32:32.128Z,7.92
2022-09-07T05:35:38.815Z,7.68
2022-09-07T05:38:46.940Z,7.39
2022-09-07T05:41:52.695Z,7.24
2022-09-07T05:45:01.159Z,7.13
2022-09-07T05:48:23.929Z,7.27
2022-09-07T05:51:33.708Z,6.94
2022-09-07T05:54:39.320Z,7.45
2022-09-07T05:57:44.973Z,7.32
2022-09-07T06:00:53.485Z,7.35
2022-09-07T06:04:00.922Z,7.91
2022-09-07T06:07:22.528Z,7.34
2022-09-07T06:10:47.151Z,7.31
2022-09-07T06:13:54.451Z,7.12
2022-09-07T06:17:03.926Z,7.99
2022-09-07T06:20:22.705Z,8.52
2022-09-07T06:23:28.424Z,7.32
2022-09-07T06:26:35.080Z,7.60
2022-09-07T06:29:40.955Z,9.39
2022-09-07T06:32:49.397Z,8.79
2022-09-07T06:36:03.875Z,8.42
2022-09-07T06:39:18.086Z,9.49
2022-09-07T06:42:23.804Z,8.12
2022-09-07T06:45:31.988Z,7.47
2022-09-07T06:48:44.443Z,7.17
2022-09-07T06:51:50.248Z,7.70
2022-09-07T06:54:59.514Z,7.98
2022-09-07T06:58:08.625Z,9.73
2022-09-07T07:01:20.627Z,12.78
2022-09-07T07:04:29.070Z,9.35
2022-09-07T07:07:34.691Z,8.76
2022-09-07T07:10:42.131Z,8.86
2022-09-07T07:13:47.954Z,8.35
2022-09-07T07:16:55.843Z,8.29
2022-09-07T07:20:04.030Z,8.15
2022-09-07T07:23:11.355Z,7.95
2022-09-07T07:26:20.246Z,7.68
2022-09-07T07:29:28.242Z,7.96
2022-09-07T07:32:35.391Z,8.40
2022-09-07T07:35:44.462Z,8.10
2022-09-07T07:39:01.445Z,7.98
2022-09-07T07:42:12.695Z,8.51
2022-09-07T07:48:46.360Z,9.63
2022-09-07T07:58:52.676Z,9.46
2022-09-07T08:02:05.023Z,9.58
2022-09-07T08:05:17.360Z,9.46
2022-09-07T08:08:28.309Z,12.86
2022-09-07T08:11:35.601Z,11.74
2022-09-07T08:14:42.676Z,9.90
2022-09-07T08:17:51.078Z,10.24
2022-09-07T08:20:57.086Z,10.18
2022-09-07T08:24:19.283Z,9.40
2022-09-07T08:27:32.642Z,9.33
2022-09-07T08:30:43.833Z,10.27
2022-09-07T08:33:49.439Z,9.54
2022-09-07T08:36:57.991Z,10.88
2022-09-07T08:40:08.269Z,10.41
2022-09-07T08:43:42.438Z,11.48
2022-09-07T08:46:59.063Z,10.31
2022-09-07T08:50:23.785Z,9.82
2022-09-07T08:53:33.515Z,9.51
2022-09-07T09:00:20.446Z,12.23
2022-09-07T09:03:32.603Z,11.25
2022-09-07T09:07:08.804Z,10.41
2022-09-07T09:10:35.040Z,9.69
2022-09-07T09:14:01.219Z,10.05
2022-09-07T09:17:15.667Z,10.74
2022-09-07T09:20:46.734Z,10.29
2022-09-07T09:24:01.591Z,10.35
2022-09-07T09:27:07.737Z,9.82
2022-09-07T09:30:21.895Z,9.24
2022-09-07T09:33:38.236Z,9.81
2022-09-07T09:36:49.750Z,10.13
2022-09-07T09:40:02.977Z,10.57
2022-09-07T09:43:21.262Z,10.01
2022-09-07T09:46:35.240Z,9.74
2022-09-07T09:49:43.900Z,9.67
2022-09-07T09:52:52.197Z,9.31
2022-09-07T09:55:59.244Z,9.05
2022-09-07T10:06:55.551Z,10.03
2022-09-07T10:10:01.534Z,8.71
2022-09-07T10:13:25.234Z,8.53
2022-09-07T10:16:44.418Z,8.69
2022-09-07T10:19:52.774Z,8.50
2022-09-07T10:23:03.765Z,8.34
2022-09-07T10:26:31.766Z,8.75
2022-09-07T10:29:39.016Z,8.16
2022-09-07T10:33:08.804Z,8.65
2022-09-07T10:36:37.849Z,8.44
2022-09-07T10:40:20.708Z,8.39
2022-09-07T10:43:45.571Z,8.08
2022-09-07T10:47:05.030Z,8.53
2022-09-07T10:50:30.883Z,7.98
2022-09-07T10:57:58.139Z,8.33
2022-09-07T11:01:21.814Z,8.43
2022-09-07T11:04:54.781Z,7.87
2022-09-07T11:08:27.414Z,8.28
2022-09-07T11:15:29.372Z,8.35
2022-09-07T11:18:49.817Z,8.21
2022-09-07T11:22:20.695Z,8.00
2022-09-07T11:25:38.294Z,8.35
2022-09-07T11:32:36.326Z,8.18
2022-09-07T11:35:54.947Z,7.84
2022-09-07T11:39:17.273Z,7.86
2022-09-07T11:42:44.444Z,8.09
2022-09-07T11:46:00.539Z,7.65
2022-09-07T11:49:26.028Z,7.67
2022-09-07T11:52:42.187Z,7.78
2022-09-07T11:55:59.011Z,7.75
2022-09-07T11:59:36.182Z,7.87
2022-09-07T12:03:25.857Z,7.93
2022-09-07T12:07:08.785Z,7.79
2022-09-07T12:10:54.659Z,7.84
2022-09-07T12:14:33.049Z,8.00
2022-09-07T12:18:04.839Z,7.50
2022-09-07T12:21:38.409Z,7.70
2022-09-07T12:24:48.681Z,7.78
2022-09-07T12:27:54.783Z,7.70
2022-09-07T12:31:08.818Z,7.79
2022-09-07T12:35:01.923Z,8.05
2022-09-07T12:39:07.843Z,7.59
2022-09-07T12:42:32.215Z,7.64
2022-09-07T12:45:56.550Z,7.64
2022-09-07T12:49:20.487Z,7.83
2022-09-07T12:52:51.624Z,7.69
2022-09-07T12:56:36.365Z,7.75
2022-09-07T13:00:08.637Z,7.78
2022-09-07T13:03:54.223Z,8.06
2022-09-07T13:07:43.064Z,7.92
2022-09-07T13:10:55.089Z,8.15
2022-09-07T13:14:13.537Z,7.79
2022-09-07T13:17:47.022Z,7.62
2022-09-07T13:21:41.778Z,8.13
2022-09-07T13:24:56.933Z,8.11
2022-09-07T13:28:07.332Z,8.21
2022-09-07T13:31:49.505Z,8.62
2022-09-07T13:35:14.467Z,8.37
2022-09-07T13:38:24.383Z,8.03
2022-09-07T13:41:40.841Z,8.38
2022-09-07T13:44:59.047Z,8.22
2022-09-07T13:48:21.915Z,8.35
2022-09-07T13:51:43.703Z,8.79
2022-09-07T13:55:25.743Z,8.13
2022-09-07T13:58:49.071Z,8.21
2022-09-07T14:01:59.395Z,8.14
2022-09-07T14:05:06.718Z,7.69
2022-09-07T14:08:31.435Z,8.32
2022-09-07T14:11:49.521Z,8.08
2022-09-07T14:15:40.971Z,7.98
2022-09-07T14:18:50.629Z,8.35
2022-09-07T14:22:08.714Z,8.57
2022-09-07T14:25:22.427Z,8.31
2022-09-07T14:28:47.860Z,8.19
2022-09-07T14:31:55.780Z,8.35
2022-09-07T14:35:08.924Z,8.46
2022-09-07T14:42:11.825Z,8.64
2022-09-07T14:45:37.780Z,8.62
2022-09-07T14:48:45.665Z,8.16
2022-09-07T14:52:00.692Z,8.35
2022-09-07T14:55:34.264Z,8.33
2022-09-07T14:58:40.954Z,8.19
2022-09-07T15:01:49.141Z,8.73
2022-09-07T15:05:25.859Z,8.37
2022-09-07T15:08:44.699Z,7.94
2022-09-07T15:11:50.261Z,7.70
2022-09-07T15:14:56.730Z,7.85
2022-09-07T15:18:09.606Z,7.97
2022-09-07T15:21:16.341Z,8.15
2022-09-07T15:24:21.936Z,7.94
2022-09-07T15:27:33.333Z,8.19
2022-09-07T15:30:39.158Z,8.28
2022-09-07T15:33:47.467Z,8.44
2022-09-07T15:36:57.598Z,8.69
2022-09-07T15:40:05.274Z,8.58
2022-09-07T15:43:19.950Z,8.31
2022-09-07T15:46:37.133Z,8.10
2022-09-07T15:49:50.247Z,8.06
2022-09-07T15:57:48.272Z,7.88
2022-09-07T16:00:23.921Z,7.88
2022-09-07T16:03:29.914Z,8.48
2022-09-07T16:06:49.459Z,8.59
2022-09-07T16:09:56.297Z,8.44
2022-09-07T16:13:11.081Z,8.46
2022-09-07T16:16:18.093Z,8.55
2022-09-07T16:19:26.738Z,8.58
2022-09-07T16:26:24.456Z,8.51
2022-09-07T16:29:30.303Z,8.52
2022-09-07T16:32:51.242Z,8.93
2022-09-07T16:36:01.591Z,9.36
2022-09-07T16:39:12.472Z,9.16
2022-09-07T16:42:20.651Z,9.14
2022-09-07T16:48:53.805Z,11.56
2022-09-07T16:52:01.749Z,13.25
2022-09-07T16:55:12.152Z,12.69
2022-09-07T17:01:43.344Z,12.51
2022-09-07T17:04:48.959Z,10.96
2022-09-07T17:07:55.067Z,11.13
2022-09-07T17:11:10.179Z,11.05
2022-09-07T17:14:16.183Z,12.98
2022-09-07T17:17:23.556Z,17.85
2022-09-07T17:20:29.264Z,20.82
2022-09-07T17:23:44.527Z,28.27
2022-09-07T17:26:56.741Z,36.75
2022-09-07T17:30:06.629Z,32.77
2022-09-07T17:33:13.446Z,29.10
2022-09-07T17:36:22.180Z,26.82
2022-09-07T17:39:27.868Z,21.61
2022-09-07T17:46:07.673Z,15.31
2022-09-07T17:49:16.914Z,13.71
2022-09-07T17:52:23.307Z,13.64
2022-09-07T17:55:28.824Z,13.47
2022-09-07T17:58:38.337Z,13.65
2022-09-07T18:01:44.474Z,13.92
2022-09-07T18:04:50.929Z,13.57
2022-09-07T18:08:00.444Z,13.64
2022-09-07T18:14:39.197Z,11.64
2022-09-07T18:17:44.896Z,10.98
2022-09-07T18:20:53.316Z,10.77
2022-09-07T18:24:05.089Z,10.98
2022-09-07T18:27:10.909Z,10.72
2022-09-07T18:30:19.408Z,11.02
2022-09-07T18:33:25.027Z,11.62
2022-09-07T18:36:34.256Z,11.68
2022-09-07T18:39:40.876Z,11.62
2022-09-07T18:42:47.035Z,12.23
2022-09-07T18:45:55.283Z,11.86
2022-09-07T18:49:00.835Z,11.45
2022-09-07T18:55:44.736Z,10.39
2022-09-07T18:58:51.820Z,11.15
2022-09-07T19:02:03.969Z,12.52
2022-09-07T19:08:39.583Z,12.53
2022-09-07T19:11:45.705Z,12.30
2022-09-07T19:14:51.356Z,12.04
2022-09-07T19:18:00.667Z,11.43
2022-09-07T19:21:07.643Z,11.68
2022-09-07T19:24:18.830Z,11.30
2022-09-07T19:27:24.623Z,11.61
2022-09-07T19:30:30.776Z,11.57
2022-09-07T19:33:39.428Z,11.71
2022-09-07T19:36:45.010Z,11.76
2022-09-07T19:39:51.889Z,11.19
2022-09-07T19:42:57.620Z,12.20
2022-09-07T19:46:05.121Z,11.34
2022-09-07T19:49:13.776Z,11.54
2022-09-07T19:52:20.214Z,11.61
2022-09-07T19:55:25.758Z,11.15
2022-09-07T19:58:39.241Z,11.50
2022-09-07T20:01:50.808Z,10.83
2022-09-07T20:04:59.931Z,11.17
2022-09-07T20:08:13.217Z,11.49
2022-09-07T20:11:21.481Z,11.56
2022-09-07T20:14:27.927Z,11.90
2022-09-07T20:17:35.532Z,11.27
2022-09-07T20:20:44.314Z,11.93
2022-09-07T20:23:51.659Z,11.33
2022-09-07T20:27:02.909Z,11.59
2022-09-07T20:30:10.630Z,11.07
2022-09-07T20:33:19.272Z,10.90
2022-09-07T20:36:27.504Z,11.15
2022-09-07T20:39:38.423Z,11.42
2022-09-07T20:42:45.697Z,10.99
2022-09-07T20:45:51.578Z,11.12
2022-09-07T20:49:04.883Z,11.34
2022-09-07T20:52:13.215Z,11.36
2022-09-07T20:55:19.038Z,11.61
2022-09-07T20:58:24.773Z,11.55
2022-09-07T21:01:35.659Z,11.67
2022-09-07T21:04:45.381Z,11.65
2022-09-07T21:07:53.622Z,11.90
2022-09-07T21:10:59.374Z,11.80
2022-09-07T21:14:08.816Z,11.84
2022-09-07T21:17:14.406Z,12.73
2022-09-07T21:20:20.236Z,12.24
2022-09-07T21:23:28.534Z,11.89
2022-09-07T21:26:35.990Z,12.12
2022-09-07T21:29:41.672Z,12.01
2022-09-07T21:32:47.274Z,12.14
2022-09-07T21:35:54.409Z,11.78
2022-09-07T21:39:09.492Z,12.08
2022-09-07T21:42:17.158Z,11.55
2022-09-07T21:45:23.217Z,11.77
2022-09-07T21:48:35.058Z,11.88
2022-09-07T21:51:40.958Z,11.98
2022-09-07T21:54:51.620Z,11.90
2022-09-07T21:57:57.602Z,12.25
2022-09-07T22:01:12.411Z,12.22
2022-09-07T22:04:18.075Z,12.59
2022-09-07T22:07:23.642Z,12.31
2022-09-07T22:10:31.947Z,12.29
2022-09-07T22:13:38.786Z,12.28
2022-09-07T22:16:44.720Z,12.90
2022-09-07T22:19:50.392Z,13.23
2022-09-07T22:22:55.942Z,12.85
2022-09-07T22:26:04.369Z,12.95
2022-09-07T22:29:14.650Z,13.18
2022-09-07T22:32:22.678Z,13.40
2022-09-07T22:35:29.806Z,13.38
2022-09-07T22:38:35.478Z,14.06
2022-09-07T22:41:45.815Z,13.81
2022-09-07T22:44:51.397Z,14.06
2022-09-07T22:48:15.596Z,14.18
2022-09-07T22:51:21.512Z,15.09
2022-09-07T22:54:27.069Z,15.56
2022-09-07T22:57:36.429Z,15.10
2022-09-07T23:00:42.818Z,15.49
2022-09-07T23:03:48.949Z,16.27
2022-09-07T23:06:57.746Z,16.08
2022-09-07T23:10:03.600Z,16.22
2022-09-07T23:13:16.910Z,16.47
2022-09-07T23:16:24.212Z,16.96
2022-09-07T23:19:29.816Z,16.80
2022-09-07T23:22:35.415Z,16.74
2022-09-07T23:25:42.124Z,17.12
2022-09-07T23:28:55.373Z,16.72
2022-09-07T23:32:01.098Z,16.85
2022-09-07T23:35:07.395Z,17.15
2022-09-07T23:38:13.422Z,16.99
2022-09-07T23:41:20.459Z,16.81
2022-09-07T23:44:28.759Z,16.91
2022-09-07T23:47:34.383Z,17.37
2022-09-07T23:50:39.920Z,17.87
2022-09-07T23:53:52.199Z,18.09
2022-09-07T23:56:57.844Z,18.08
